Seelyville, Indiana
Current Conditions -  °F | °C
As of 6:53 AM on Friday 31 Oct 2014 (Local Time) from KHUF Reporting Station
Overcast Overcast  
Wind Chill: 44°   Ceiling: 7500
Heat Index: 44°   Visibility: 9mi
Dew Point: 42°   Wind: 3mph
Humidity: 93%   Direction: 300°WNW
Pressure: 30.03"   Gusts: NA
Location:  39.49°N, 87.27°W
Report Text: KHUF 311053Z 30003KT 9SM SCT060 OVC075 07/06 A3003 RMK AO2 SLP170 T00670056
Loading
Personal Weather Stations






























Interactive Weather Map
Tropical Storm Tracking
New forecast layout! Learn more

10-Day Weather Forecast

Advertisements
Track Severe Weather on mobile